sensor_id;sensor_type;location;lat;lon;timestamp;pressure;altitude;pressure_sealevel;temperature;humidity
69187;BME280;56301;56.864;60.554;2023-04-22T00:01:02;98175.56;;;24.88;37.38
69187;BME280;56301;56.864;60.554;2023-04-22T00:03:25;98175.56;;;24.88;37.09
69187;BME280;56301;56.864;60.554;2023-04-22T00:05:47;98179.28;;;24.87;36.72
69187;BME280;56301;56.864;60.554;2023-04-22T00:08:10;98179.28;;;24.87;36.69
69187;BME280;56301;56.864;60.554;2023-04-22T00:10:33;98180.13;;;24.87;37.04
69187;BME280;56301;56.864;60.554;2023-04-22T00:12:55;98185.53;;;24.87;36.96
69187;BME280;56301;56.864;60.554;2023-04-22T00:15:18;98184.69;;;24.87;36.60
69187;BME280;56301;56.864;60.554;2023-04-22T00:17:40;98179.28;;;24.87;36.41
69187;BME280;56301;56.864;60.554;2023-04-22T00:20:03;98179.28;;;24.87;36.57
69187;BME280;56301;56.864;60.554;2023-04-22T00:22:25;98180.13;;;24.87;36.89
69187;BME280;56301;56.864;60.554;2023-04-22T00:24:48;98184.69;;;24.87;36.85
69187;BME280;56301;56.864;60.554;2023-04-22T00:27:10;98173.88;;;24.87;36.69
69187;BME280;56301;56.864;60.554;2023-04-22T00:29:33;98180.13;;;24.87;36.65
69187;BME280;56301;56.864;60.554;2023-04-22T00:31:55;98184.50;;;24.88;36.61
69187;BME280;56301;56.864;60.554;2023-04-22T00:34:18;98182.00;;;24.87;36.57
69187;BME280;56301;56.864;60.554;2023-04-22T00:36:40;98184.69;;;24.87;35.85
69187;BME280;56301;56.864;60.554;2023-04-22T00:39:03;98190.09;;;24.87;36.46
69187;BME280;56301;56.864;60.554;2023-04-22T00:41:26;98181.16;;;24.86;36.67
69187;BME280;56301;56.864;60.554;2023-04-22T00:43:49;98184.69;;;24.87;36.32
69187;BME280;56301;56.864;60.554;2023-04-22T00:46:11;98182.19;;;24.85;36.13
69187;BME280;56301;56.864;60.554;2023-04-22T00:48:35;98183.03;;;24.86;36.05
69187;BME280;56301;56.864;60.554;2023-04-22T00:50:58;98188.44;;;24.86;36.49
69187;BME280;56301;56.864;60.554;2023-04-22T00:53:20;98188.44;;;24.86;36.27
69187;BME280;56301;56.864;60.554;2023-04-22T00:55:43;98187.41;;;24.87;36.16
69187;BME280;56301;56.864;60.554;2023-04-22T00:58:05;98193.84;;;24.86;36.10
69187;BME280;56301;56.864;60.554;2023-04-22T01:00:28;98193.25;;;24.84;36.33
69187;BME280;56301;56.864;60.554;2023-04-22T01:02:50;98192.38;;;24.83;36.08
69187;BME280;56301;56.864;60.554;2023-04-22T01:05:12;98187.19;;;24.82;36.13
69187;BME280;56301;56.864;60.554;2023-04-22T01:07:35;98192.59;;;24.82;36.03
69187;BME280;56301;56.864;60.554;2023-04-22T01:09:57;98189.88;;;24.82;35.93
69187;BME280;56301;56.864;60.554;2023-04-22T01:12:20;98196.97;;;24.83;35.98
69187;BME280;56301;56.864;60.554;2023-04-22T01:14:42;98189.88;;;24.82;36.01
69187;BME280;56301;56.864;60.554;2023-04-22T01:17:05;98201.53;;;24.82;35.91
69187;BME280;56301;56.864;60.554;2023-04-22T01:19:27;98188.00;;;24.82;35.91
69187;BME280;56301;56.864;60.554;2023-04-22T01:21:50;98196.34;;;24.81;35.64
69187;BME280;56301;56.864;60.554;2023-04-22T01:24:13;98200.91;;;24.80;35.38
69187;BME280;56301;56.864;60.554;2023-04-22T01:26:36;98199.03;;;24.81;35.83
69187;BME280;56301;56.864;60.554;2023-04-22T01:29:00;98196.34;;;24.81;36.07
69187;BME280;56301;56.864;60.554;2023-04-22T01:31:22;98199.88;;;24.81;35.92
69187;BME280;56301;56.864;60.554;2023-04-22T01:33:45;98190.94;;;24.81;35.44
69187;BME280;56301;56.864;60.554;2023-04-22T01:36:09;98190.09;;;24.80;36.05
69187;BME280;56301;56.864;60.554;2023-04-22T01:38:33;98191.75;;;24.81;35.73
69187;BME280;56301;56.864;60.554;2023-04-22T01:40:55;98190.09;;;24.80;35.20
69187;BME280;56301;56.864;60.554;2023-04-22T01:43:18;98201.75;;;24.81;35.79
69187;BME280;56301;56.864;60.554;2023-04-22T01:45:40;98206.13;;;24.82;35.10
69187;BME280;56301;56.864;60.554;2023-04-22T01:48:03;98196.97;;;24.83;35.96
69187;BME280;56301;56.864;60.554;2023-04-22T01:50:26;98192.19;;;24.85;36.06
69187;BME280;56301;56.864;60.554;2023-04-22T01:52:48;98188.44;;;24.86;36.35
69187;BME280;56301;56.864;60.554;2023-04-22T01:55:11;98189.28;;;24.86;35.51
69187;BME280;56301;56.864;60.554;2023-04-22T01:57:34;98199.28;;;24.86;35.96
69187;BME280;56301;56.864;60.554;2023-04-22T01:59:57;98194.69;;;24.86;35.61
69187;BME280;56301;56.864;60.554;2023-04-22T02:02:19;98193.84;;;24.86;35.88
69187;BME280;56301;56.864;60.554;2023-04-22T02:04:41;98193.03;;;24.85;35.46
69187;BME280;56301;56.864;60.554;2023-04-22T02:07:04;98195.94;;;24.84;35.34
69187;BME280;56301;56.864;60.554;2023-04-22T02:09:28;98199.47;;;24.84;35.49
69187;BME280;56301;56.864;60.554;2023-04-22T02:11:51;98205.72;;;24.85;35.27
69187;BME280;56301;56.864;60.554;2023-04-22T02:14:16;98202.19;;;24.84;35.28
69187;BME280;56301;56.864;60.554;2023-04-22T02:16:42;98222.13;;;24.83;35.41
69187;BME280;56301;56.864;60.554;2023-04-22T02:19:05;98218.41;;;24.84;34.97
69187;BME280;56301;56.864;60.554;2023-04-22T02:21:29;98219.88;;;24.87;35.13
69187;BME280;56301;56.864;60.554;2023-04-22T02:23:52;98213.63;;;24.86;35.25
69187;BME280;56301;56.864;60.554;2023-04-22T02:26:15;98214.47;;;24.87;35.04
69187;BME280;56301;56.864;60.554;2023-04-22T02:28:37;98210.09;;;24.86;35.06
69187;BME280;56301;56.864;60.554;2023-04-22T02:31:00;98209.88;;;24.87;35.73
69187;BME280;56301;56.864;60.554;2023-04-22T02:33:23;98218.00;;;24.87;35.12
69187;BME280;56301;56.864;60.554;2023-04-22T02:35:47;98214.69;;;24.85;34.97
69187;BME280;56301;56.864;60.554;2023-04-22T02:38:13;98216.34;;;24.86;35.61
69187;BME280;56301;56.864;60.554;2023-04-22T02:40:36;98217.16;;;24.87;34.79
69187;BME280;56301;56.864;60.554;2023-04-22T02:42:58;98218.00;;;24.87;35.45
69187;BME280;56301;56.864;60.554;2023-04-22T02:45:21;98218.22;;;24.86;35.13
69187;BME280;56301;56.864;60.554;2023-04-22T02:47:43;98219.88;;;24.87;35.65
69187;BME280;56301;56.864;60.554;2023-04-22T02:50:06;98221.75;;;24.86;34.77
69187;BME280;56301;56.864;60.554;2023-04-22T02:52:29;98222.56;;;24.87;35.11
69187;BME280;56301;56.864;60.554;2023-04-22T02:54:51;98225.28;;;24.87;34.96
69187;BME280;56301;56.864;60.554;2023-04-22T02:57:13;98226.31;;;24.86;35.06
69187;BME280;56301;56.864;60.554;2023-04-22T02:59:36;98235.28;;;24.86;35.03
69187;BME280;56301;56.864;60.554;2023-04-22T03:01:59;98222.56;;;24.87;35.30
69187;BME280;56301;56.864;60.554;2023-04-22T03:04:48;98225.09;;;24.88;35.01
69187;BME280;56301;56.864;60.554;2023-04-22T03:07:10;98220.53;;;24.89;34.39
69187;BME280;56301;56.864;60.554;2023-04-22T03:09:33;98217.16;;;24.87;35.18
69187;BME280;56301;56.864;60.554;2023-04-22T03:11:56;98226.56;;;24.91;35.52
69187;BME280;56301;56.864;60.554;2023-04-22T03:14:18;98226.38;;;24.92;34.43
69187;BME280;56301;56.864;60.554;2023-04-22T03:16:41;98223.28;;;24.95;35.09
69187;BME280;56301;56.864;60.554;2023-04-22T03:19:03;98231.19;;;24.97;34.36
69187;BME280;56301;56.864;60.554;2023-04-22T03:21:26;98232.66;;;25.00;35.12
69187;BME280;56301;56.864;60.554;2023-04-22T03:23:48;98221.63;;;25.01;34.99
69187;BME280;56301;56.864;60.554;2023-04-22T03:26:11;98225.16;;;25.02;34.73
69187;BME280;56301;56.864;60.554;2023-04-22T03:28:35;98236.44;;;25.05;35.56
69187;BME280;56301;56.864;60.554;2023-04-22T03:30:57;98229.19;;;25.06;35.23
69187;BME280;56301;56.864;60.554;2023-04-22T03:33:20;98218.13;;;25.07;34.23
69187;BME280;56301;56.864;60.554;2023-04-22T03:35:48;98224.03;;;25.11;34.50
69187;BME280;56301;56.864;60.554;2023-04-22T03:38:11;98226.53;;;25.12;34.10
69187;BME280;56301;56.864;60.554;2023-04-22T03:40:33;98222.59;;;25.15;35.00
69187;BME280;56301;56.864;60.554;2023-04-22T03:43:00;98215.13;;;25.17;34.25
69187;BME280;56301;56.864;60.554;2023-04-22T03:45:23;98213.84;;;25.19;35.17
69187;BME280;56301;56.864;60.554;2023-04-22T03:48:05;98216.56;;;25.19;34.81
69187;BME280;56301;56.864;60.554;2023-04-22T03:50:34;98212.59;;;25.15;34.58
69187;BME280;56301;56.864;60.554;2023-04-22T03:52:57;98209.88;;;25.15;35.19
69187;BME280;56301;56.864;60.554;2023-04-22T03:55:19;98211.16;;;25.19;34.71
69187;BME280;56301;56.864;60.554;2023-04-22T03:57:43;98215.34;;;25.22;35.26
69187;BME280;56301;56.864;60.554;2023-04-22T04:00:07;98217.66;;;25.25;35.20
69187;BME280;56301;56.864;60.554;2023-04-22T04:02:36;98222.03;;;25.26;35.14
69187;BME280;56301;56.864;60.554;2023-04-22T04:04:59;98221.19;;;25.26;34.72
69187;BME280;56301;56.864;60.554;2023-04-22T04:07:22;98222.47;;;25.30;34.90
69187;BME280;56301;56.864;60.554;2023-04-22T04:09:46;98220.78;;;25.29;34.80
69187;BME280;56301;56.864;60.554;2023-04-22T04:12:08;98216.22;;;25.29;35.10
69187;BME280;56301;56.864;60.554;2023-04-22T04:14:35;98212.47;;;25.30;34.48
69187;BME280;56301;56.864;60.554;2023-04-22T04:16:58;98218.31;;;25.34;34.69
69187;BME280;56301;56.864;60.554;2023-04-22T04:19:27;98211.22;;;25.33;34.34
69187;BME280;56301;56.864;60.554;2023-04-22T04:21:49;98216.25;;;25.36;36.04
69187;BME280;56301;56.864;60.554;2023-04-22T04:24:12;98217.50;;;25.40;35.71
69187;BME280;56301;56.864;60.554;2023-04-22T04:26:39;98210.66;;;25.44;37.07
69187;BME280;56301;56.864;60.554;2023-04-22T04:29:08;98210.47;;;25.52;37.07
69187;BME280;56301;56.864;60.554;2023-04-22T04:31:33;98215.03;;;25.45;36.89
69187;BME280;56301;56.864;60.554;2023-04-22T04:33:55;98215.03;;;25.45;36.66
69187;BME280;56301;56.864;60.554;2023-04-22T04:36:18;98215.03;;;25.45;37.58
69187;BME280;56301;56.864;60.554;2023-04-22T04:38:40;98208.59;;;25.46;36.72
69187;BME280;56301;56.864;60.554;2023-04-22T04:41:02;98212.13;;;25.47;37.54
69187;BME280;56301;56.864;60.554;2023-04-22T04:43:25;98206.50;;;25.48;37.21
69187;BME280;56301;56.864;60.554;2023-04-22T04:45:54;98208.38;;;25.48;37.38
69187;BME280;56301;56.864;60.554;2023-04-22T04:48:25;98202.13;;;25.47;37.58
69187;BME280;56301;56.864;60.554;2023-04-22T04:50:52;98202.97;;;25.48;37.90
69187;BME280;56301;56.864;60.554;2023-04-22T04:53:15;98197.34;;;25.49;38.04
69187;BME280;56301;56.864;60.554;2023-04-22T04:55:39;98203.78;;;25.48;38.22
69187;BME280;56301;56.864;60.554;2023-04-22T04:58:08;98200.69;;;25.51;38.48
69187;BME280;56301;56.864;60.554;2023-04-22T05:00:30;98199.63;;;25.52;38.03
69187;BME280;56301;56.864;60.554;2023-04-22T05:02:53;98197.75;;;25.53;38.17
69187;BME280;56301;56.864;60.554;2023-04-22T05:05:15;98199.66;;;25.59;39.13
69187;BME280;56301;56.864;60.554;2023-04-22T05:07:39;98196.34;;;25.63;38.42
69187;BME280;56301;56.864;60.554;2023-04-22T05:10:03;98199.03;;;25.63;38.71
69187;BME280;56301;56.864;60.554;2023-04-22T05:12:28;98196.56;;;25.62;39.41
69187;BME280;56301;56.864;60.554;2023-04-22T05:14:51;98196.56;;;25.62;39.03
69187;BME280;56301;56.864;60.554;2023-04-22T05:17:14;98196.78;;;25.60;40.27
69187;BME280;56301;56.864;60.554;2023-04-22T05:19:37;98204.47;;;25.63;40.38
69187;BME280;56301;56.864;60.554;2023-04-22T05:21:59;98199.28;;;25.68;39.82
69187;BME280;56301;56.864;60.554;2023-04-22T05:24:22;98192.00;;;25.69;39.55
69187;BME280;56301;56.864;60.554;2023-04-22T05:26:45;98200.94;;;25.69;40.32
69187;BME280;56301;56.864;60.554;2023-04-22T05:29:14;98198.88;;;25.72;39.78
69187;BME280;56301;56.864;60.554;2023-04-22T05:31:37;98198.06;;;25.71;39.73
69187;BME280;56301;56.864;60.554;2023-04-22T05:33:59;98197.19;;;25.70;40.20
69187;BME280;56301;56.864;60.554;2023-04-22T05:36:22;98198.88;;;25.72;39.15
69187;BME280;56301;56.864;60.554;2023-04-22T05:38:45;98193.47;;;25.72;39.00
69187;BME280;56301;56.864;60.554;2023-04-22T05:41:07;98195.97;;;25.73;39.24
69187;BME280;56301;56.864;60.554;2023-04-22T05:43:31;98195.97;;;25.73;39.09
69187;BME280;56301;56.864;60.554;2023-04-22T05:46:01;98190.34;;;25.75;39.66
69187;BME280;56301;56.864;60.554;2023-04-22T05:48:24;98190.59;;;25.80;39.36
69187;BME280;56301;56.864;60.554;2023-04-22T05:50:53;98174.34;;;25.80;39.22
69187;BME280;56301;56.864;60.554;2023-04-22T05:53:15;98174.34;;;25.80;39.79
69187;BME280;56301;56.864;60.554;2023-04-22T05:55:38;98170.59;;;25.81;39.24
69187;BME280;56301;56.864;60.554;2023-04-22T05:58:03;98173.28;;;25.81;38.20
69187;BME280;56301;56.864;60.554;2023-04-22T06:00:55;98170.59;;;25.81;38.27
69187;BME280;56301;56.864;60.554;2023-04-22T06:03:53;98164.34;;;25.80;37.74
69187;BME280;56301;56.864;60.554;2023-04-22T06:06:15;98169.75;;;25.80;38.61
69187;BME280;56301;56.864;60.554;2023-04-22T06:08:38;98169.56;;;25.82;38.11
69187;BME280;56301;56.864;60.554;2023-04-22T06:11:00;98171.41;;;25.81;38.27
69187;BME280;56301;56.864;60.554;2023-04-22T06:13:26;98164.28;;;25.74;37.52
69187;BME280;56301;56.864;60.554;2023-04-22T06:15:48;98168.59;;;25.55;37.13
69187;BME280;56301;56.864;60.554;2023-04-22T06:18:11;98170.03;;;25.44;36.26
69187;BME280;56301;56.864;60.554;2023-04-22T06:20:35;98168.75;;;25.40;35.78
69187;BME280;56301;56.864;60.554;2023-04-22T06:22:57;98164.53;;;25.24;35.94
69187;BME280;56301;56.864;60.554;2023-04-22T06:25:21;98174.31;;;25.25;34.91
69187;BME280;56301;56.864;60.554;2023-04-22T06:27:44;98169.75;;;25.26;35.28
69187;BME280;56301;56.864;60.554;2023-04-22T06:30:08;98166.16;;;25.18;35.11
69187;BME280;56301;56.864;60.554;2023-04-22T06:32:30;98164.13;;;25.20;34.07
69187;BME280;56301;56.864;60.554;2023-04-22T06:34:53;98165.75;;;25.15;33.30
69187;BME280;56301;56.864;60.554;2023-04-22T06:37:15;98167.81;;;25.13;33.19
69187;BME280;56301;56.864;60.554;2023-04-22T06:39:39;98164.22;;;25.06;32.93
69187;BME280;56301;56.864;60.554;2023-04-22T06:42:17;98165.63;;;25.02;32.66
69187;BME280;56301;56.864;60.554;2023-04-22T06:44:59;98175.63;;;25.01;33.04
69187;BME280;56301;56.864;60.554;2023-04-22T06:47:34;98161.22;;;24.94;32.28
69187;BME280;56301;56.864;60.554;2023-04-22T06:50:09;98166.78;;;24.86;29.99
69187;BME280;56301;56.864;60.554;2023-04-22T06:52:40;98165.88;;;24.72;29.89
69187;BME280;56301;56.864;60.554;2023-04-22T06:55:03;98167.13;;;24.69;30.55
69187;BME280;56301;56.864;60.554;2023-04-22T06:57:26;98168.97;;;24.69;29.89
69187;BME280;56301;56.864;60.554;2023-04-22T06:59:48;98168.97;;;24.69;31.30
69187;BME280;56301;56.864;60.554;2023-04-22T07:02:11;98164.88;;;24.80;30.89
69187;BME280;56301;56.864;60.554;2023-04-22T07:04:35;98171.16;;;24.80;30.96
69187;BME280;56301;56.864;60.554;2023-04-22T07:06:57;98176.63;;;24.65;29.31
69187;BME280;56301;56.864;60.554;2023-04-22T07:09:20;98175.19;;;24.63;29.56
69187;BME280;56301;56.864;60.554;2023-04-22T07:11:42;98171.22;;;24.65;30.30
69187;BME280;56301;56.864;60.554;2023-04-22T07:14:13;98173.31;;;24.63;29.59
69187;BME280;56301;56.864;60.554;2023-04-22T07:16:35;98180.16;;;24.59;29.09
69187;BME280;56301;56.864;60.554;2023-04-22T07:18:57;98171.88;;;24.39;28.42
69187;BME280;56301;56.864;60.554;2023-04-22T07:21:20;98177.78;;;24.07;27.59
69187;BME280;56301;56.864;60.554;2023-04-22T07:23:42;98172.75;;;23.97;28.11
69187;BME280;56301;56.864;60.554;2023-04-22T07:26:05;98176.81;;;24.14;28.29
69187;BME280;56301;56.864;60.554;2023-04-22T07:28:27;98173.66;;;24.32;29.52
69187;BME280;56301;56.864;60.554;2023-04-22T07:30:50;98178.00;;;24.26;29.75
69187;BME280;56301;56.864;60.554;2023-04-22T07:33:12;98177.59;;;24.30;28.86
69187;BME280;56301;56.864;60.554;2023-04-22T07:35:35;98175.44;;;24.18;29.16
69187;BME280;56301;56.864;60.554;2023-04-22T07:37:58;98174.25;;;24.27;30.32
69187;BME280;56301;56.864;60.554;2023-04-22T07:40:20;98177.19;;;24.33;30.75
69187;BME280;56301;56.864;60.554;2023-04-22T07:42:42;98174.63;;;24.46;30.59
69187;BME280;56301;56.864;60.554;2023-04-22T07:45:05;98174.41;;;24.41;30.03
69187;BME280;56301;56.864;60.554;2023-04-22T07:47:28;98175.53;;;24.32;29.80
69187;BME280;56301;56.864;60.554;2023-04-22T07:49:51;98176.94;;;24.27;28.98
69187;BME280;56301;56.864;60.554;2023-04-22T07:52:13;98164.97;;;24.37;30.10
69187;BME280;56301;56.864;60.554;2023-04-22T07:54:36;98169.81;;;24.41;29.59
69187;BME280;56301;56.864;60.554;2023-04-22T07:56:58;98170.50;;;24.29;28.24
69187;BME280;56301;56.864;60.554;2023-04-22T07:59:21;98176.19;;;24.34;28.82
69187;BME280;56301;56.864;60.554;2023-04-22T08:01:44;98169.09;;;24.33;28.86
69187;BME280;56301;56.864;60.554;2023-04-22T08:04:06;98163.94;;;24.38;29.36
69187;BME280;56301;56.864;60.554;2023-04-22T08:06:29;98166.91;;;24.43;28.39
69187;BME280;56301;56.864;60.554;2023-04-22T08:08:52;98167.56;;;24.45;28.99
69187;BME280;56301;56.864;60.554;2023-04-22T08:11:14;98167.28;;;24.40;28.21
69187;BME280;56301;56.864;60.554;2023-04-22T08:13:37;98161.06;;;24.18;27.53
69187;BME280;56301;56.864;60.554;2023-04-22T08:16:00;98156.75;;;24.23;28.05
69187;BME280;56301;56.864;60.554;2023-04-22T08:18:22;98157.03;;;24.35;28.58
69187;BME280;56301;56.864;60.554;2023-04-22T08:20:45;98157.19;;;24.48;29.62
69187;BME280;56301;56.864;60.554;2023-04-22T08:23:08;98153.09;;;24.59;30.36
69187;BME280;56301;56.864;60.554;2023-04-22T08:25:31;98149.53;;;24.52;28.62
69187;BME280;56301;56.864;60.554;2023-04-22T08:27:53;98145.66;;;24.40;28.77
69187;BME280;56301;56.864;60.554;2023-04-22T08:30:16;98151.19;;;24.53;29.81
69187;BME280;56301;56.864;60.554;2023-04-22T08:32:38;98147.94;;;24.64;30.24
69187;BME280;56301;56.864;60.554;2023-04-22T08:35:01;98142.56;;;24.71;30.34
69187;BME280;56301;56.864;60.554;2023-04-22T08:37:24;98149.47;;;24.73;30.61
69187;BME280;56301;56.864;60.554;2023-04-22T08:39:48;98148.66;;;24.80;30.40
69187;BME280;56301;56.864;60.554;2023-04-22T08:42:11;98152.22;;;24.87;30.13
69187;BME280;56301;56.864;60.554;2023-04-22T08:44:34;98144.38;;;24.92;29.86
69187;BME280;56301;56.864;60.554;2023-04-22T08:46:57;98143.97;;;24.95;29.75
69187;BME280;56301;56.864;60.554;2023-04-22T08:49:20;98137.69;;;24.94;29.74
69187;BME280;56301;56.864;60.554;2023-04-22T08:51:45;98131.84;;;24.91;29.05
69187;BME280;56301;56.864;60.554;2023-04-22T08:54:07;98139.75;;;24.86;30.56
69187;BME280;56301;56.864;60.554;2023-04-22T08:56:29;98131.84;;;24.91;30.68
69187;BME280;56301;56.864;60.554;2023-04-22T08:58:52;98135.84;;;24.95;30.56
69187;BME280;56301;56.864;60.554;2023-04-22T09:01:15;98136.06;;;25.00;30.77
69187;BME280;56301;56.864;60.554;2023-04-22T09:03:38;98134.00;;;25.02;31.05
69187;BME280;56301;56.864;60.554;2023-04-22T09:06:04;98120.03;;;25.05;30.85
69187;BME280;56301;56.864;60.554;2023-04-22T09:08:26;98125.06;;;25.08;31.85
69187;BME280;56301;56.864;60.554;2023-04-22T09:10:49;98129.28;;;25.11;31.41
69187;BME280;56301;56.864;60.554;2023-04-22T09:13:12;98127.00;;;25.14;30.87
69187;BME280;56301;56.864;60.554;2023-04-22T09:15:34;98126.19;;;25.14;31.27
69187;BME280;56301;56.864;60.554;2023-04-22T09:17:57;98132.41;;;25.14;31.56
69187;BME280;56301;56.864;60.554;2023-04-22T09:20:24;98125.34;;;25.20;31.82
69187;BME280;56301;56.864;60.554;2023-04-22T09:22:48;98128.06;;;25.20;31.20
69187;BME280;56301;56.864;60.554;2023-04-22T09:25:17;98124.50;;;25.19;30.79
69187;BME280;56301;56.864;60.554;2023-04-22T09:27:40;98129.94;;;25.19;31.59
69187;BME280;56301;56.864;60.554;2023-04-22T09:30:05;98117.84;;;25.15;30.91
69187;BME280;56301;56.864;60.554;2023-04-22T09:32:29;98120.94;;;25.12;31.22
69187;BME280;56301;56.864;60.554;2023-04-22T09:34:52;98122.63;;;25.13;31.61
69187;BME280;56301;56.864;60.554;2023-04-22T09:37:17;98116.38;;;25.13;31.57
69187;BME280;56301;56.864;60.554;2023-04-22T09:39:43;98111.81;;;25.13;31.78
69187;BME280;56301;56.864;60.554;2023-04-22T09:42:05;98109.50;;;25.10;31.61
69187;BME280;56301;56.864;60.554;2023-04-22T09:44:28;98110.69;;;25.08;31.85
69187;BME280;56301;56.864;60.554;2023-04-22T09:46:52;98110.69;;;25.08;31.73
69187;BME280;56301;56.864;60.554;2023-04-22T09:49:15;98105.91;;;25.03;31.74
69187;BME280;56301;56.864;60.554;2023-04-22T09:51:41;98105.88;;;24.96;31.39
69187;BME280;56301;56.864;60.554;2023-04-22T09:54:04;98105.88;;;24.96;31.69
69187;BME280;56301;56.864;60.554;2023-04-22T09:56:44;98102.31;;;24.96;32.10
69187;BME280;56301;56.864;60.554;2023-04-22T09:59:07;98104.19;;;24.95;32.29
69187;BME280;56301;56.864;60.554;2023-04-22T10:01:34;98087.31;;;24.93;31.51
69187;BME280;56301;56.864;60.554;2023-04-22T10:03:56;98102.72;;;24.93;31.56
69187;BME280;56301;56.864;60.554;2023-04-22T10:06:19;98094.81;;;24.91;31.65
69187;BME280;56301;56.864;60.554;2023-04-22T10:08:41;98092.28;;;24.90;31.97
69187;BME280;56301;56.864;60.554;2023-04-22T10:11:05;98089.81;;;24.88;32.17
69187;BME280;56301;56.864;60.554;2023-04-22T10:13:28;98090.63;;;24.89;32.07
69187;BME280;56301;56.864;60.554;2023-04-22T10:15:51;98086.25;;;24.88;31.24
69187;BME280;56301;56.864;60.554;2023-04-22T10:18:19;98081.88;;;24.87;31.61
69187;BME280;56301;56.864;60.554;2023-04-22T10:20:43;98082.47;;;24.82;31.92
69187;BME280;56301;56.864;60.554;2023-04-22T10:23:14;98080.38;;;24.78;32.20
69187;BME280;56301;56.864;60.554;2023-04-22T10:25:39;98080.81;;;24.46;30.25
69187;BME280;56301;56.864;60.554;2023-04-22T10:30:28;98079.88;;;23.40;31.99
69187;BME280;56301;56.864;60.554;2023-04-22T10:32:51;98081.41;;;23.28;32.68
69187;BME280;56301;56.864;60.554;2023-04-22T10:35:14;98076.22;;;23.12;31.71
69187;BME280;56301;56.864;60.554;2023-04-22T10:37:39;98082.13;;;22.86;33.43
69187;BME280;56301;56.864;60.554;2023-04-22T10:40:36;98081.84;;;23.10;33.07
69187;BME280;56301;56.864;60.554;2023-04-22T10:42:51;98076.88;;;23.50;33.22
69187;BME280;56301;56.864;60.554;2023-04-22T10:45:15;98072.50;;;23.70;32.48
69187;BME280;56301;56.864;60.554;2023-04-22T10:47:38;98068.66;;;23.80;33.43
69187;BME280;56301;56.864;60.554;2023-04-22T10:50:23;98074.03;;;24.01;34.48
69187;BME280;56301;56.864;60.554;2023-04-22T10:52:48;98063.56;;;24.19;35.23
69187;BME280;56301;56.864;60.554;2023-04-22T10:55:11;98062.53;;;24.20;33.80
69187;BME280;56301;56.864;60.554;2023-04-22T10:57:35;98060.03;;;23.69;35.67
69187;BME280;56301;56.864;60.554;2023-04-22T10:59:58;98057.56;;;23.32;37.00
69187;BME280;56301;56.864;60.554;2023-04-22T11:02:21;98058.03;;;23.35;37.63
69187;BME280;56301;56.864;60.554;2023-04-22T11:04:43;98054.56;;;23.05;35.51
69187;BME280;56301;56.864;60.554;2023-04-22T11:09:44;98039.16;;;22.99;38.16
69187;BME280;56301;56.864;60.554;2023-04-22T11:14:48;98030.81;;;23.58;37.18
69187;BME280;56301;56.864;60.554;2023-04-22T11:17:11;98026.56;;;23.92;39.24
69187;BME280;56301;56.864;60.554;2023-04-22T11:19:34;98036.44;;;24.06;39.34
69187;BME280;56301;56.864;60.554;2023-04-22T11:21:56;98021.63;;;24.30;40.00
69187;BME280;56301;56.864;60.554;2023-04-22T11:24:19;98028.53;;;23.76;38.12
69187;BME280;56301;56.864;60.554;2023-04-22T11:26:41;98027.69;;;23.54;38.30
69187;BME280;56301;56.864;60.554;2023-04-22T11:29:03;98026.41;;;23.50;39.64
69187;BME280;56301;56.864;60.554;2023-04-22T11:31:26;98030.44;;;23.40;40.13
69187;BME280;56301;56.864;60.554;2023-04-22T11:33:49;98027.09;;;23.38;40.25
69187;BME280;56301;56.864;60.554;2023-04-22T11:36:13;98025.19;;;23.32;39.64
69187;BME280;56301;56.864;60.554;2023-04-22T11:38:36;98021.31;;;23.41;40.60
69187;BME280;56301;56.864;60.554;2023-04-22T11:40:58;98025.28;;;23.66;40.81
69187;BME280;56301;56.864;60.554;2023-04-22T11:43:20;98021.41;;;23.97;41.76
69187;BME280;56301;56.864;60.554;2023-04-22T11:45:43;98013.00;;;24.13;41.22
69187;BME280;56301;56.864;60.554;2023-04-22T11:48:06;98007.28;;;24.30;43.07
69187;BME280;56301;56.864;60.554;2023-04-22T11:50:30;98010.47;;;24.40;41.73
69187;BME280;56301;56.864;60.554;2023-04-22T11:52:54;98004.59;;;23.73;40.56
69187;BME280;56301;56.864;60.554;2023-04-22T11:57:43;98015.09;;;23.40;40.65
69187;BME280;56301;56.864;60.554;2023-04-22T12:00:08;98019.19;;;23.15;40.25
69187;BME280;56301;56.864;60.554;2023-04-22T12:02:32;98015.00;;;23.34;41.71
69187;BME280;56301;56.864;60.554;2023-04-22T12:04:54;98013.97;;;23.56;42.39
69187;BME280;56301;56.864;60.554;2023-04-22T12:07:19;98007.84;;;23.90;41.47
69187;BME280;56301;56.864;60.554;2023-04-22T12:09:41;98008.63;;;24.12;41.39
69187;BME280;56301;56.864;60.554;2023-04-22T12:12:04;98001.22;;;24.27;42.24
69187;BME280;56301;56.864;60.554;2023-04-22T12:14:30;98005.25;;;24.38;39.90
69187;BME280;56301;56.864;60.554;2023-04-22T12:16:52;98001.19;;;24.49;41.60
69187;BME280;56301;56.864;60.554;2023-04-22T12:19:15;98003.09;;;24.55;41.19
69187;BME280;56301;56.864;60.554;2023-04-22T12:21:37;98004.97;;;24.61;40.25
69187;BME280;56301;56.864;60.554;2023-04-22T12:24:00;98001.88;;;24.64;41.39
69187;BME280;56301;56.864;60.554;2023-04-22T12:26:24;97992.53;;;24.73;40.48
69187;BME280;56301;56.864;60.554;2023-04-22T12:28:46;97985.69;;;24.78;41.15
69187;BME280;56301;56.864;60.554;2023-04-22T12:31:09;97985.91;;;24.83;40.54
69187;BME280;56301;56.864;60.554;2023-04-22T12:33:32;97989.88;;;24.87;40.23
69187;BME280;56301;56.864;60.554;2023-04-22T12:35:55;97983.22;;;24.89;39.63
69187;BME280;56301;56.864;60.554;2023-04-22T12:38:17;97981.59;;;24.95;39.94
69187;BME280;56301;56.864;60.554;2023-04-22T12:40:40;97977.44;;;24.99;40.21
69187;BME280;56301;56.864;60.554;2023-04-22T12:43:22;97981.81;;;25.07;40.46